createdAt,value
2023-02-17T00:02:57.477Z,5.93
2023-02-17T00:07:59.733Z,5.47
2023-02-17T00:13:01.862Z,5.55
2023-02-17T00:18:04.093Z,4.50
2023-02-17T00:23:06.206Z,3.63
2023-02-17T00:28:08.508Z,4.00
2023-02-17T00:33:10.757Z,5.07
2023-02-17T00:38:12.940Z,4.60
2023-02-17T00:43:15.083Z,5.85
2023-02-17T00:48:17.281Z,5.28
2023-02-17T00:53:20.735Z,5.15
2023-02-17T00:58:23.463Z,6.20
2023-02-17T01:03:26.180Z,6.80
2023-02-17T01:08:28.382Z,4.65
2023-02-17T01:13:30.565Z,5.80
2023-02-17T01:18:33.017Z,4.05
2023-02-17T01:23:35.211Z,6.13
2023-02-17T01:28:37.372Z,5.07
2023-02-17T01:33:40.087Z,5.53
2023-02-17T01:38:44.416Z,5.45
2023-02-17T01:44:05.053Z,5.57
2023-02-17T01:49:20.255Z,4.32
2023-02-17T01:54:26.950Z,5.20
2023-02-17T01:59:29.889Z,4.63
2023-02-17T02:04:33.951Z,4.45
2023-02-17T02:09:40.064Z,4.70
2023-02-17T02:14:42.246Z,4.57
2023-02-17T02:19:45.221Z,4.95
2023-02-17T02:24:57.657Z,4.47
2023-02-17T02:29:59.820Z,4.93
2023-02-17T02:35:25.552Z,4.18
2023-02-17T02:40:30.273Z,2.28
2023-02-17T02:45:32.612Z,5.57
2023-02-17T02:50:53.482Z,5.65
2023-02-17T02:56:14.246Z,5.43
2023-02-17T03:01:20.331Z,4.43
2023-02-17T03:06:25.666Z,3.67
2023-02-17T03:11:32.622Z,4.65
2023-02-17T03:16:37.582Z,3.50
2023-02-17T03:21:39.774Z,4.20
2023-02-17T03:26:42.969Z,4.53
2023-02-17T03:31:45.410Z,3.85
2023-02-17T03:36:47.722Z,4.07
2023-02-17T03:41:51.979Z,4.60
2023-02-17T03:46:54.178Z,6.03
2023-02-17T03:51:56.337Z,5.90
2023-02-17T03:56:59.844Z,4.18
2023-02-17T04:02:02.477Z,5.25
2023-02-17T04:07:04.659Z,4.65
2023-02-17T04:12:06.823Z,4.70
2023-02-17T04:17:08.960Z,4.30
2023-02-17T04:22:11.134Z,4.95
2023-02-17T04:27:13.425Z,3.80
2023-02-17T04:32:15.668Z,4.57
2023-02-17T04:37:17.859Z,5.60
2023-02-17T04:42:20.062Z,5.75
2023-02-17T04:47:23.241Z,5.40
2023-02-17T04:52:25.580Z,5.45
2023-02-17T04:57:27.788Z,2.42
2023-02-17T05:02:30.794Z,4.65
2023-02-17T05:07:32.976Z,5.88
2023-02-17T05:12:35.854Z,6.20
2023-02-17T05:17:38.379Z,5.00
2023-02-17T05:22:40.766Z,6.43
2023-02-17T05:32:45.044Z,4.80
2023-02-17T05:37:47.328Z,5.22
2023-02-17T05:42:49.519Z,5.07
2023-02-17T05:47:51.759Z,5.32
2023-02-17T05:52:53.993Z,4.38
2023-02-17T05:57:56.304Z,5.30
2023-02-17T06:02:58.543Z,6.18
2023-02-17T06:08:00.871Z,5.72
2023-02-17T06:18:05.254Z,2.70
2023-02-17T06:23:07.512Z,4.30
2023-02-17T06:28:09.741Z,4.30
2023-02-17T06:33:12.167Z,4.88
2023-02-17T06:38:14.344Z,3.67
2023-02-17T06:48:19.075Z,4.32
2023-02-17T06:53:21.406Z,4.13
2023-02-17T07:03:25.767Z,3.13
2023-02-17T07:08:28.077Z,4.93
2023-02-17T07:13:30.210Z,5.68
2023-02-17T07:18:32.493Z,3.67
2023-02-17T07:28:37.246Z,3.38
2023-02-17T07:33:39.695Z,4.90
2023-02-17T07:43:44.376Z,5.13
2023-02-17T07:48:47.406Z,3.80
2023-02-17T07:53:50.154Z,4.63
2023-02-17T07:58:52.761Z,3.67
2023-02-17T08:03:56.482Z,4.40
2023-02-17T08:09:17.808Z,4.32
2023-02-17T08:14:23.766Z,3.78
2023-02-17T08:24:53.198Z,5.63
2023-02-17T08:34:58.138Z,3.30
2023-02-17T08:45:02.457Z,4.97
2023-02-17T08:50:06.825Z,4.57
2023-02-17T08:55:09.046Z,5.82
2023-02-17T09:05:14.173Z,5.05
2023-02-17T09:10:16.354Z,5.22
2023-02-17T09:20:25.109Z,6.15
2023-02-17T09:25:27.690Z,5.03
2023-02-17T09:30:30.518Z,3.05
2023-02-17T09:35:33.235Z,4.57
2023-02-17T09:40:38.547Z,5.18
2023-02-17T09:45:42.336Z,6.72
2023-02-17T09:50:44.770Z,6.35
2023-02-17T09:55:49.067Z,6.68
2023-02-17T10:00:54.178Z,5.15
2023-02-17T10:06:12.451Z,5.95
2023-02-17T10:11:17.962Z,5.28
2023-02-17T10:16:22.713Z,5.22
2023-02-17T10:21:34.328Z,5.97
2023-02-17T10:26:45.733Z,3.20
2023-02-17T10:31:53.213Z,5.10
2023-02-17T10:37:03.429Z,4.50
2023-02-17T10:42:06.731Z,5.35
2023-02-17T10:47:10.510Z,6.45
2023-02-17T10:52:33.214Z,4.85
2023-02-17T10:57:39.593Z,4.75
2023-02-17T11:02:43.046Z,6.72
2023-02-17T11:07:46.011Z,6.43
2023-02-17T11:12:51.373Z,5.57
2023-02-17T11:17:54.176Z,6.30
2023-02-17T11:28:25.126Z,5.97
2023-02-17T11:33:41.822Z,4.25
2023-02-17T11:38:53.336Z,6.55
2023-02-17T11:44:02.580Z,3.92
2023-02-17T11:49:11.023Z,4.70
2023-02-17T11:54:30.271Z,4.00
2023-02-17T11:59:51.230Z,5.13
2023-02-17T12:04:56.886Z,5.85
2023-02-17T12:10:04.449Z,5.40
2023-02-17T12:15:16.136Z,5.65
2023-02-17T12:20:21.602Z,4.30
2023-02-17T12:25:33.636Z,5.00
2023-02-17T12:30:53.373Z,4.55
2023-02-17T12:35:57.042Z,5.10
2023-02-17T12:41:17.871Z,6.47
2023-02-17T12:46:29.078Z,4.40
2023-02-17T12:51:34.113Z,5.45
2023-02-17T12:56:42.186Z,5.20
2023-02-17T13:06:51.000Z,4.40
2023-02-17T13:11:53.736Z,5.78
2023-02-17T13:16:56.995Z,6.50
2023-02-17T13:22:00.383Z,6.18
2023-02-17T13:27:11.504Z,6.55
2023-02-17T13:32:14.929Z,4.28
2023-02-17T13:37:20.516Z,5.50
2023-02-17T13:42:42.528Z,5.10
2023-02-17T13:47:45.388Z,5.15
2023-02-17T13:52:47.595Z,4.07
2023-02-17T13:57:53.054Z,4.43
2023-02-17T14:02:59.340Z,5.50
2023-02-17T14:08:12.401Z,5.53
2023-02-17T14:13:14.737Z,4.45
2023-02-17T14:18:17.023Z,5.07
2023-02-17T14:23:19.191Z,5.00
2023-02-17T14:33:25.027Z,5.40
2023-02-17T14:38:28.823Z,6.38
2023-02-17T14:43:30.951Z,5.80
2023-02-17T14:53:40.682Z,4.10
2023-02-17T14:58:42.854Z,4.40
2023-02-17T15:03:45.017Z,7.13
2023-02-17T15:08:49.570Z,4.93
2023-02-17T15:13:51.821Z,5.43
2023-02-17T15:18:53.990Z,6.70
2023-02-17T15:23:57.429Z,6.22
2023-02-17T15:28:59.618Z,6.55
2023-02-17T15:34:01.797Z,8.25
2023-02-17T15:39:03.966Z,10.50
2023-02-17T15:44:07.487Z,8.25
2023-02-17T15:49:11.480Z,7.13
2023-02-17T15:54:13.620Z,5.95
2023-02-17T15:59:18.062Z,7.60
2023-02-17T16:04:20.306Z,8.30
2023-02-17T16:09:22.424Z,8.38
2023-02-17T16:14:31.864Z,8.10
2023-02-17T16:19:34.680Z,6.38
2023-02-17T16:24:37.140Z,5.22
2023-02-17T16:29:40.085Z,6.18
2023-02-17T16:34:43.045Z,7.10
2023-02-17T16:39:45.556Z,4.30
2023-02-17T16:44:48.842Z,4.82
2023-02-17T16:49:50.999Z,6.45
2023-02-17T16:54:53.870Z,7.32
2023-02-17T16:59:57.461Z,7.82
2023-02-17T17:04:59.544Z,8.60
2023-02-17T17:10:15.830Z,9.55
2023-02-17T17:15:19.264Z,7.80
2023-02-17T17:20:24.280Z,5.53
2023-02-17T17:25:26.877Z,7.55
2023-02-17T17:30:30.468Z,7.25
2023-02-17T17:35:32.813Z,6.78
2023-02-17T17:40:48.886Z,7.05
2023-02-17T17:45:51.924Z,5.22
2023-02-17T17:50:54.078Z,5.60
2023-02-17T17:55:56.177Z,4.82
2023-02-17T18:00:59.032Z,5.05
2023-02-17T18:06:01.349Z,5.78
2023-02-17T18:11:04.089Z,5.70
2023-02-17T18:16:06.533Z,5.28
2023-02-17T18:21:09.209Z,5.32
2023-02-17T18:26:12.336Z,6.13
2023-02-17T18:31:15.754Z,4.72
2023-02-17T18:36:19.676Z,4.78
2023-02-17T18:41:29.644Z,4.35
2023-02-17T18:46:34.481Z,4.97
2023-02-17T18:51:36.713Z,5.38
2023-02-17T18:56:39.037Z,6.53
2023-02-17T19:01:42.783Z,4.70
2023-02-17T19:06:45.256Z,3.92
2023-02-17T19:11:47.466Z,5.22
2023-02-17T19:16:49.705Z,5.30
2023-02-17T19:21:51.926Z,6.18
2023-02-17T19:26:55.077Z,6.28
2023-02-17T19:31:58.352Z,7.47
2023-02-17T19:37:00.651Z,5.82
2023-02-17T19:42:03.587Z,5.43
2023-02-17T19:47:05.736Z,5.90
2023-02-17T19:52:08.137Z,6.50
2023-02-17T20:02:15.739Z,6.00
2023-02-17T20:07:17.911Z,6.82
2023-02-17T20:12:20.160Z,5.65
2023-02-17T20:17:22.348Z,7.10
2023-02-17T20:22:24.573Z,4.22
2023-02-17T20:27:26.823Z,6.03
2023-02-17T20:32:29.208Z,11.15
2023-02-17T20:42:33.480Z,8.88
2023-02-17T20:47:40.400Z,10.55
2023-02-17T20:52:42.593Z,7.68
2023-02-17T20:57:44.841Z,8.57
2023-02-17T21:02:47.124Z,8.07
2023-02-17T21:07:49.701Z,10.20
2023-02-17T21:17:53.938Z,8.57
2023-02-17T21:22:56.279Z,7.32
2023-02-17T21:27:58.612Z,8.18
2023-02-17T21:33:01.126Z,8.60
2023-02-17T21:43:24.105Z,7.03
2023-02-17T21:48:26.265Z,7.38
2023-02-17T21:53:28.419Z,8.07
2023-02-17T21:58:31.155Z,7.40
2023-02-17T22:03:33.760Z,8.65
2023-02-17T22:13:37.855Z,5.72
2023-02-17T22:18:40.494Z,7.40
2023-02-17T22:23:43.076Z,2.63
2023-02-17T22:28:45.493Z,7.22
2023-02-17T22:33:47.730Z,6.35
2023-02-17T22:38:50.949Z,6.75
2023-02-17T22:43:54.352Z,7.35
2023-02-17T22:48:58.157Z,7.32
2023-02-17T22:54:00.940Z,6.40
2023-02-17T22:59:04.581Z,8.93
2023-02-17T23:04:06.923Z,7.72
2023-02-17T23:09:14.823Z,7.28
2023-02-17T23:14:25.019Z,7.38
2023-02-17T23:19:28.076Z,8.60
2023-02-17T23:24:30.319Z,9.63
2023-02-17T23:29:32.874Z,5.90
2023-02-17T23:34:35.054Z,8.35
2023-02-17T23:39:38.348Z,8.45
2023-02-17T23:44:40.510Z,7.70
2023-02-17T23:49:42.664Z,9.57
2023-02-17T23:54:44.805Z,8.68
2023-02-17T23:59:46.974Z,3.63
